createdAt,value
2023-01-01T00:00:08.110Z,24.82
2023-01-01T00:03:15.527Z,24.83
2023-01-01T00:06:19.343Z,24.83
2023-01-01T00:09:39.901Z,24.83
2023-01-01T00:12:43.405Z,24.83
2023-01-01T00:15:46.780Z,24.85
2023-01-01T00:18:51.875Z,24.94
2023-01-01T00:21:55.574Z,24.93
2023-01-01T00:24:59.045Z,24.96
2023-01-01T00:28:05.146Z,24.98
2023-01-01T00:31:09.533Z,24.97
2023-01-01T00:34:14.907Z,25.00
2023-01-01T00:37:18.486Z,24.99
2023-01-01T00:40:22.002Z,25.00
2023-01-01T00:43:25.919Z,24.97
2023-01-01T00:46:29.260Z,24.96
2023-01-01T00:49:34.297Z,24.95
2023-01-01T00:52:37.743Z,24.94
2023-01-01T00:55:41.684Z,24.94
2023-01-01T00:58:45.610Z,24.96
2023-01-01T01:02:04.599Z,24.93
2023-01-01T01:05:10.996Z,24.96
2023-01-01T01:08:14.480Z,24.93
2023-01-01T01:11:22.208Z,24.95
2023-01-01T01:14:25.754Z,24.92
2023-01-01T01:17:29.591Z,24.92
2023-01-01T01:20:34.492Z,24.93
2023-01-01T01:23:38.852Z,24.91
2023-01-01T01:26:43.019Z,24.91
2023-01-01T01:29:46.573Z,24.89
2023-01-01T01:32:50.120Z,24.88
2023-01-01T01:35:55.967Z,24.90
2023-01-01T01:39:01.999Z,24.85
2023-01-01T01:42:06.531Z,24.88
2023-01-01T01:45:13.573Z,24.90
2023-01-01T01:48:18.159Z,24.88
2023-01-01T01:51:29.696Z,24.93
2023-01-01T01:54:33.194Z,24.86
2023-01-01T01:57:40.232Z,24.90
2023-01-01T02:00:44.022Z,24.89
2023-01-01T02:03:58.263Z,24.91
2023-01-01T02:07:03.126Z,24.89
2023-01-01T02:10:07.637Z,24.88
2023-01-01T02:13:11.561Z,24.85
2023-01-01T02:16:23.665Z,24.91
2023-01-01T02:19:45.071Z,24.92
2023-01-01T02:23:25.880Z,24.94
2023-01-01T02:26:54.282Z,24.94
2023-01-01T02:30:05.844Z,24.86
2023-01-01T02:33:15.140Z,24.83
2023-01-01T02:36:23.136Z,24.81
2023-01-01T02:39:34.730Z,24.81
2023-01-01T02:42:38.486Z,24.80
2023-01-01T02:45:43.658Z,24.82
2023-01-01T02:48:50.564Z,24.81
2023-01-01T02:52:07.081Z,24.86
2023-01-01T02:55:28.097Z,24.85
2023-01-01T02:59:00.818Z,24.82
2023-01-01T03:02:21.878Z,24.82
2023-01-01T03:05:59.831Z,24.83
2023-01-01T03:09:16.218Z,24.80
2023-01-01T03:12:40.029Z,24.84
2023-01-01T03:15:59.841Z,24.82
2023-01-01T03:19:16.495Z,24.88
2023-01-01T03:22:26.035Z,24.82
2023-01-01T03:25:35.276Z,24.84
2023-01-01T03:28:47.491Z,24.84
2023-01-01T03:31:57.918Z,24.84
2023-01-01T03:35:04.227Z,24.81
2023-01-01T03:38:14.877Z,24.82
2023-01-01T03:41:31.735Z,24.83
2023-01-01T03:44:39.597Z,24.79
2023-01-01T03:47:44.600Z,24.78
2023-01-01T03:51:06.678Z,24.85
2023-01-01T03:54:25.230Z,24.80
2023-01-01T03:57:44.909Z,24.83
2023-01-01T04:00:57.275Z,24.80
2023-01-01T04:04:04.461Z,24.78
2023-01-01T04:07:15.227Z,24.80
2023-01-01T04:10:19.863Z,24.80
2023-01-01T04:13:23.662Z,24.80
2023-01-01T04:16:27.027Z,24.81
2023-01-01T04:19:30.795Z,24.82
2023-01-01T04:22:35.840Z,24.88
2023-01-01T04:25:39.487Z,24.87
2023-01-01T04:28:44.204Z,24.88
2023-01-01T04:31:51.060Z,24.90
2023-01-01T04:34:54.370Z,24.91
2023-01-01T04:38:02.847Z,24.94
2023-01-01T04:41:06.963Z,24.93
2023-01-01T04:44:10.540Z,24.95
2023-01-01T04:47:13.918Z,24.96
2023-01-01T04:50:18.176Z,24.96
2023-01-01T04:53:22.845Z,24.98
2023-01-01T04:56:26.659Z,24.99
2023-01-01T04:59:31.111Z,24.99
2023-01-01T05:02:34.920Z,24.98
2023-01-01T05:05:38.293Z,24.98
2023-01-01T05:08:45.727Z,25.02
2023-01-01T05:11:49.275Z,24.97
2023-01-01T05:14:53.013Z,24.98
2023-01-01T05:17:56.283Z,24.99
2023-01-01T05:21:02.204Z,25.00
2023-01-01T05:24:09.418Z,25.02
2023-01-01T05:27:14.986Z,24.98
2023-01-01T05:30:18.938Z,24.97
2023-01-01T05:33:22.733Z,24.99
2023-01-01T05:36:29.789Z,25.02
2023-01-01T05:39:34.873Z,25.02
2023-01-01T05:42:38.154Z,24.98
2023-01-01T05:45:41.705Z,24.97
2023-01-01T05:48:45.870Z,24.99
2023-01-01T05:51:50.250Z,24.97
2023-01-01T05:54:55.060Z,24.98
2023-01-01T05:57:58.904Z,24.97
2023-01-01T06:01:09.599Z,25.01
2023-01-01T06:04:13.365Z,24.92
2023-01-01T06:07:16.755Z,24.92
2023-01-01T06:10:21.839Z,24.94
2023-01-01T06:13:25.163Z,24.90
2023-01-01T06:16:31.208Z,24.92
2023-01-01T06:19:34.839Z,24.89
2023-01-01T06:22:38.779Z,24.91
2023-01-01T06:25:43.605Z,24.91
2023-01-01T06:28:49.045Z,24.90
2023-01-01T06:31:52.472Z,24.88
2023-01-01T06:34:56.361Z,24.82
2023-01-01T06:38:01.102Z,24.69
2023-01-01T06:41:09.108Z,24.62
2023-01-01T06:44:12.379Z,24.53
2023-01-01T06:47:16.009Z,24.51
2023-01-01T06:50:19.604Z,24.49
2023-01-01T06:53:26.014Z,24.52
2023-01-01T06:56:31.354Z,24.52
2023-01-01T06:59:34.948Z,24.50
2023-01-01T07:02:38.273Z,24.51
2023-01-01T07:05:42.255Z,24.52
2023-01-01T07:08:45.634Z,24.52
2023-01-01T07:11:50.703Z,24.56
2023-01-01T07:14:53.921Z,24.55
2023-01-01T07:17:57.612Z,24.58
2023-01-01T07:21:03.747Z,24.60
2023-01-01T07:24:11.918Z,24.63
2023-01-01T07:27:16.457Z,24.66
2023-01-01T07:30:20.195Z,24.66
2023-01-01T07:33:25.566Z,24.71
2023-01-01T07:36:29.154Z,24.73
2023-01-01T07:39:32.423Z,24.75
2023-01-01T07:42:37.491Z,24.79
2023-01-01T07:45:41.546Z,24.80
2023-01-01T07:48:46.872Z,24.81
2023-01-01T07:51:50.077Z,24.82
2023-01-01T07:54:54.052Z,24.83
2023-01-01T07:57:58.724Z,24.86
2023-01-01T08:01:02.697Z,24.85
2023-01-01T08:04:06.732Z,24.88
2023-01-01T08:07:10.453Z,24.88
2023-01-01T08:10:13.865Z,24.90
2023-01-01T08:13:18.899Z,24.92
2023-01-01T08:16:22.146Z,24.92
2023-01-01T08:19:25.823Z,24.92
2023-01-01T08:22:29.232Z,24.91
2023-01-01T08:25:33.207Z,24.92
2023-01-01T08:28:37.792Z,24.95
2023-01-01T08:31:41.517Z,24.93
2023-01-01T08:34:44.988Z,24.93
2023-01-01T08:37:48.494Z,24.94
2023-01-01T08:40:51.723Z,24.93
2023-01-01T08:43:57.003Z,24.96
2023-01-01T08:47:00.346Z,24.92
2023-01-01T08:50:05.615Z,24.94
2023-01-01T08:53:08.860Z,24.95
2023-01-01T08:56:16.127Z,24.99
2023-01-01T08:59:20.730Z,24.99
2023-01-01T09:02:24.550Z,25.00
2023-01-01T09:05:28.701Z,25.02
2023-01-01T09:08:32.441Z,25.03
2023-01-01T09:11:36.455Z,25.05
2023-01-01T09:14:41.459Z,25.07
2023-01-01T09:17:44.672Z,25.05
2023-01-01T09:20:48.200Z,25.04
2023-01-01T09:23:51.356Z,25.05
2023-01-01T09:26:54.840Z,25.07
2023-01-01T09:29:59.854Z,25.12
2023-01-01T09:33:05.280Z,25.12
2023-01-01T09:36:27.221Z,25.20
2023-01-01T09:39:30.890Z,25.11
2023-01-01T09:42:44.677Z,25.18
2023-01-01T09:46:00.436Z,25.21
2023-01-01T09:49:12.852Z,25.15
2023-01-01T09:52:21.547Z,25.16
2023-01-01T09:55:31.568Z,25.18
2023-01-01T09:58:38.824Z,25.18
2023-01-01T10:01:55.633Z,25.24
2023-01-01T10:05:09.940Z,25.20
2023-01-01T10:08:32.827Z,25.25
2023-01-01T10:11:54.217Z,25.28
2023-01-01T10:15:13.315Z,25.33
2023-01-01T10:18:25.462Z,25.33
2023-01-01T10:21:34.965Z,25.32
2023-01-01T10:24:48.564Z,25.47
2023-01-01T10:28:00.060Z,25.45
2023-01-01T10:31:17.138Z,25.52
2023-01-01T10:34:26.573Z,25.48
2023-01-01T10:37:37.751Z,25.48
2023-01-01T10:40:41.359Z,25.44
2023-01-01T10:43:47.478Z,25.47
2023-01-01T10:46:59.176Z,25.52
2023-01-01T10:50:08.581Z,25.49
2023-01-01T10:53:25.623Z,25.55
2023-01-01T10:56:43.367Z,25.53
2023-01-01T10:59:53.937Z,25.43
2023-01-01T11:03:19.307Z,25.52
2023-01-01T11:06:28.130Z,25.43
2023-01-01T11:09:32.745Z,25.41
2023-01-01T11:13:04.409Z,25.41
2023-01-01T11:16:03.130Z,25.35
2023-01-01T11:19:09.578Z,25.37
2023-01-01T11:22:39.427Z,25.48
2023-01-01T11:26:00.051Z,25.41
2023-01-01T11:29:22.662Z,25.40
2023-01-01T11:32:36.179Z,25.35
2023-01-01T11:35:51.753Z,25.40
2023-01-01T11:39:21.300Z,25.47
2023-01-01T11:42:29.156Z,25.40
2023-01-01T11:45:41.177Z,25.42
2023-01-01T11:48:45.463Z,25.43
2023-01-01T11:51:48.868Z,25.43
2023-01-01T11:54:57.614Z,25.44
2023-01-01T11:58:19.207Z,25.44
2023-01-01T12:01:33.219Z,25.40
2023-01-01T12:04:48.181Z,25.30
2023-01-01T12:07:53.447Z,24.61
2023-01-01T12:11:10.211Z,24.14
2023-01-01T12:14:29.499Z,23.61
2023-01-01T12:17:42.376Z,23.08
2023-01-01T12:20:56.150Z,22.68
2023-01-01T12:23:59.625Z,22.32
2023-01-01T12:27:29.052Z,22.18
2023-01-01T12:30:44.127Z,21.80
2023-01-01T12:34:10.311Z,21.69
2023-01-01T12:37:28.773Z,21.46
2023-01-01T12:40:40.991Z,21.30
2023-01-01T12:44:02.196Z,21.21
2023-01-01T12:47:17.535Z,21.05
2023-01-01T12:50:37.257Z,21.05
2023-01-01T12:53:57.116Z,20.99
2023-01-01T12:57:09.797Z,20.83
2023-01-01T13:00:18.948Z,20.78
2023-01-01T13:03:31.458Z,20.70
2023-01-01T13:06:44.573Z,20.75
2023-01-01T13:09:49.006Z,20.75
2023-01-01T13:12:56.931Z,20.57
2023-01-01T13:16:01.995Z,20.53
2023-01-01T13:19:07.007Z,20.83
2023-01-01T13:22:43.070Z,21.27
2023-01-01T13:25:46.669Z,21.33
2023-01-01T13:29:48.277Z,21.70
2023-01-01T13:33:26.869Z,21.87
2023-01-01T13:36:33.940Z,21.96
2023-01-01T13:39:55.012Z,22.21
2023-01-01T13:43:34.984Z,22.31
2023-01-01T13:46:59.153Z,22.39
2023-01-01T13:50:21.704Z,22.52
2023-01-01T13:53:59.782Z,22.59
2023-01-01T13:57:25.188Z,22.62
2023-01-01T14:00:35.829Z,22.69
2023-01-01T14:03:45.868Z,22.74
2023-01-01T14:06:56.495Z,22.79
2023-01-01T14:10:28.975Z,22.94
2023-01-01T14:13:42.271Z,22.89
2023-01-01T14:16:45.807Z,22.85
2023-01-01T14:19:51.470Z,22.88
2023-01-01T14:22:56.329Z,22.90
2023-01-01T14:26:03.318Z,22.89
2023-01-01T14:29:10.629Z,22.90
2023-01-01T14:32:19.572Z,22.89
2023-01-01T14:35:22.942Z,22.88
2023-01-01T14:38:31.241Z,22.93
2023-01-01T14:41:38.666Z,22.90
2023-01-01T14:44:47.326Z,22.91
2023-01-01T14:47:54.550Z,22.89
2023-01-01T14:50:58.475Z,22.85
2023-01-01T14:54:06.294Z,22.91
2023-01-01T14:57:14.921Z,22.90
2023-01-01T15:00:24.724Z,22.94
2023-01-01T15:03:28.375Z,22.88
2023-01-01T15:06:33.827Z,22.95
2023-01-01T15:09:38.801Z,22.99
2023-01-01T15:12:43.026Z,22.99
2023-01-01T15:15:49.806Z,23.02
2023-01-01T15:18:57.171Z,23.01
2023-01-01T15:22:00.976Z,23.00
2023-01-01T15:25:14.020Z,23.01
2023-01-01T15:28:21.491Z,23.00
2023-01-01T15:31:35.310Z,22.96
2023-01-01T15:34:48.968Z,22.97
2023-01-01T15:37:58.363Z,22.92
2023-01-01T15:41:38.970Z,23.01
2023-01-01T15:44:42.641Z,22.84
2023-01-01T15:47:48.283Z,22.86
2023-01-01T15:51:07.006Z,22.93
2023-01-01T15:54:19.847Z,22.84
2023-01-01T15:57:25.444Z,22.80
2023-01-01T16:00:33.156Z,22.77
2023-01-01T16:03:40.038Z,22.75
2023-01-01T16:06:46.708Z,22.74
2023-01-01T16:09:57.339Z,22.72
2023-01-01T16:13:03.061Z,22.70
2023-01-01T16:16:25.294Z,22.71
2023-01-01T16:19:32.674Z,22.66
2023-01-01T16:22:36.860Z,22.66
2023-01-01T16:25:40.675Z,22.66
2023-01-01T16:28:45.346Z,22.65
2023-01-01T16:31:49.105Z,22.64
2023-01-01T16:34:52.584Z,22.63
2023-01-01T16:37:56.335Z,22.60
2023-01-01T16:40:59.629Z,22.58
2023-01-01T16:44:04.637Z,22.58
2023-01-01T16:47:08.259Z,22.54
2023-01-01T16:50:12.923Z,22.53
2023-01-01T16:53:16.250Z,22.49
2023-01-01T16:56:20.051Z,22.48
2023-01-01T16:59:24.969Z,22.51
2023-01-01T17:02:30.387Z,22.49
2023-01-01T17:05:42.233Z,22.53
2023-01-01T17:08:48.093Z,22.46
2023-01-01T17:11:51.561Z,22.47
2023-01-01T17:14:56.476Z,22.48
2023-01-01T17:18:00.303Z,22.48
2023-01-01T17:21:06.368Z,22.50
2023-01-01T17:24:09.812Z,22.50
2023-01-01T17:27:13.502Z,22.51
2023-01-01T17:30:18.305Z,22.51
2023-01-01T17:33:21.741Z,22.49
2023-01-01T17:36:27.099Z,22.50
2023-01-01T17:39:30.843Z,22.51
2023-01-01T17:42:35.990Z,22.52
2023-01-01T17:45:40.966Z,22.53
2023-01-01T17:48:46.470Z,22.54
2023-01-01T17:51:50.049Z,22.52
2023-01-01T17:54:53.364Z,22.52
2023-01-01T17:57:57.012Z,22.53
2023-01-01T18:01:27.973Z,22.64
2023-01-01T18:04:31.738Z,22.51
2023-01-01T18:07:35.048Z,22.55
2023-01-01T18:10:38.994Z,22.58
2023-01-01T18:13:42.471Z,22.62
2023-01-01T18:16:47.725Z,22.65
2023-01-01T18:19:51.014Z,22.64
2023-01-01T18:22:54.896Z,22.64
2023-01-01T18:26:01.995Z,22.68
2023-01-01T18:29:05.884Z,22.65
2023-01-01T18:32:10.906Z,22.68
2023-01-01T18:35:14.752Z,22.67
2023-01-01T18:38:20.527Z,22.70
2023-01-01T18:41:44.833Z,22.74
2023-01-01T18:44:48.311Z,22.66
2023-01-01T18:47:53.384Z,22.69
2023-01-01T18:50:58.288Z,22.69
2023-01-01T18:54:02.318Z,22.66
2023-01-01T18:57:22.446Z,22.68
2023-01-01T19:00:33.157Z,22.55
2023-01-01T19:03:41.532Z,22.53
2023-01-01T19:06:45.535Z,22.44
2023-01-01T19:09:51.553Z,22.43
2023-01-01T19:12:59.374Z,22.38
2023-01-01T19:16:22.410Z,22.38
2023-01-01T19:19:37.496Z,22.37
2023-01-01T19:22:40.737Z,22.32
2023-01-01T19:25:44.565Z,22.32
2023-01-01T19:28:53.136Z,22.32
2023-01-01T19:31:59.506Z,22.32
2023-01-01T19:35:04.378Z,22.32
2023-01-01T19:38:08.137Z,22.29
2023-01-01T19:41:12.512Z,22.28
2023-01-01T19:44:24.602Z,22.28
2023-01-01T19:47:28.335Z,22.27
2023-01-01T19:50:33.382Z,22.29
2023-01-01T19:53:36.858Z,22.28
2023-01-01T19:56:41.483Z,22.31
2023-01-01T19:59:44.665Z,22.31
2023-01-01T20:02:48.725Z,22.33
2023-01-01T20:05:56.085Z,22.35
2023-01-01T20:08:59.496Z,22.33
2023-01-01T20:12:02.766Z,22.34
2023-01-01T20:15:08.939Z,22.36
2023-01-01T20:18:12.305Z,22.36
2023-01-01T20:21:49.450Z,22.40
2023-01-01T20:24:52.648Z,22.36
2023-01-01T20:28:14.027Z,22.39
2023-01-01T20:31:17.305Z,22.36
2023-01-01T20:34:22.445Z,22.41
2023-01-01T20:37:39.284Z,22.44
2023-01-01T20:40:42.811Z,22.41
2023-01-01T20:43:46.017Z,22.43
2023-01-01T20:46:49.709Z,22.42
2023-01-01T20:49:52.930Z,22.42
2023-01-01T20:52:57.867Z,22.45
2023-01-01T20:56:01.235Z,22.42
2023-01-01T20:59:24.611Z,22.46
2023-01-01T21:02:29.789Z,22.46
2023-01-01T21:05:33.772Z,22.52
2023-01-01T21:08:38.367Z,22.57
2023-01-01T21:11:42.212Z,22.58
2023-01-01T21:14:45.521Z,22.61
2023-01-01T21:17:49.626Z,22.60
2023-01-01T21:20:52.894Z,22.58
2023-01-01T21:24:07.313Z,22.63
2023-01-01T21:27:15.840Z,22.64
2023-01-01T21:30:22.216Z,22.65
2023-01-01T21:33:29.112Z,22.67
2023-01-01T21:36:32.910Z,22.64
2023-01-01T21:39:37.556Z,22.65
2023-01-01T21:42:41.191Z,22.59
2023-01-01T21:45:48.267Z,22.60
2023-01-01T21:48:57.681Z,22.60
2023-01-01T21:52:02.445Z,22.56
2023-01-01T21:55:23.255Z,22.63
2023-01-01T21:58:51.436Z,22.52
2023-01-01T22:02:00.908Z,22.47
2023-01-01T22:05:30.842Z,22.55
2023-01-01T22:08:45.691Z,22.46
2023-01-01T22:11:53.306Z,22.40
2023-01-01T22:15:08.378Z,22.39
2023-01-01T22:18:25.253Z,22.42
2023-01-01T22:21:28.914Z,22.34
2023-01-01T22:24:36.372Z,22.36
2023-01-01T22:27:41.940Z,22.32
2023-01-01T22:30:45.378Z,22.30
2023-01-01T22:33:50.928Z,22.29
2023-01-01T22:36:55.046Z,22.30
2023-01-01T22:40:01.258Z,22.34
2023-01-01T22:43:12.478Z,22.37
2023-01-01T22:46:27.310Z,22.38
2023-01-01T22:49:39.037Z,22.38
2023-01-01T22:52:43.023Z,22.35
2023-01-01T22:55:46.276Z,22.34
2023-01-01T22:58:57.259Z,22.34
2023-01-01T23:02:00.994Z,22.31
2023-01-01T23:05:06.895Z,22.31
2023-01-01T23:08:10.163Z,22.28
2023-01-01T23:11:14.462Z,22.28
2023-01-01T23:14:39.179Z,22.29
2023-01-01T23:17:43.134Z,22.24
2023-01-01T23:20:46.352Z,22.24
2023-01-01T23:23:52.417Z,22.25
2023-01-01T23:26:55.740Z,22.23
2023-01-01T23:30:03.296Z,22.24
2023-01-01T23:33:07.196Z,22.20
2023-01-01T23:36:11.281Z,22.20
2023-01-01T23:39:14.475Z,22.19
2023-01-01T23:42:18.337Z,22.18
2023-01-01T23:45:23.062Z,22.18
2023-01-01T23:48:26.785Z,22.15
2023-01-01T23:51:30.079Z,22.16
2023-01-01T23:54:33.802Z,22.14
2023-01-01T23:57:37.169Z,22.13
